METAR Data
IDs: Format: Raw Decoded Include TAF

Data at: 1752 UTC 23 Apr 2019

KGUP 231743Z AUTO 07011KT 10SM -TSRA FEW026 BKN090 OVC110 09/04 A3013 RMK AO2 RAB13 TSB37 P0000 T00940044
KGUP 231653Z AUTO 35009KT 10SM FEW028 BKN040 12/03 A3013 RMK AO2 SLP119 T01170033
KGUP 231553Z AUTO 07006KT 10SM SCT026 BKN044 11/04 A3012 RMK AO2 SLP127 T01110039
KGUP 231453Z AUTO 03006KT 10SM FEW048 10/04 A3013 RMK AO2 SLP128 T01000039 53004
KGUP 231353Z AUTO 06005KT 10SM SCT012 07/04 A3012 RMK AO2 SLP131 T00720039
KGUP 231324Z AUTO 03007KT 10SM BKN013 BKN095 07/03 A3012 RMK AO2 T00670033
KGUP 231253Z AUTO 00000KT 10SM SCT015 OVC095 06/03 A3011 RMK AO2 SLP123 T00610033
KGUP 231243Z AUTO 00000KT 10SM BKN015 OVC095 06/03 A3011 RMK AO2 T00610033
KGUP 231153Z AUTO 04011KT 10SM OVC010 07/04 A3011 RMK AO2 SLP113 T00670039 10094 20067 51003
KGUP 231134Z AUTO 03012KT 10SM BKN012 BKN018 OVC030 07/04 A3011 RMK AO2 T00670039
KGUP 231053Z AUTO 02012KT 10SM OVC026 07/03 A3011 RMK AO2 SLP107 T00720033
KGUP 231030Z AUTO 03011KT 10SM FEW014 BKN026 OVC070 07/04 A3011 RMK AO2 T00720039
KGUP 230953Z AUTO 05009KT 10SM OVC070 07/04 A3011 RMK AO2 SLP109 T00670039
KGUP 230853Z AUTO 01010KT 10SM OVC090 07/04 A3010 RMK AO2 SLP100 T00720039 58007
KGUP 230753Z AUTO 03008KT 10SM OVC090 08/03 A3012 RMK AO2 SLP107 T00780033
KGUP 230653Z AUTO 02010KT 10SM FEW043 SCT095 08/03 A3012 RMK AO2 SLP109 T00830028 401721017
KGUP 230553Z AUTO 32006KT 10SM BKN049 OVC070 09/02 A3013 RMK AO2 RAB02E35 SLP109 P0000 60000 T00890022 10150 20089 51010
KGUP 230453Z AUTO 07006KT 10SM BKN060 OVC075 10/01 A3011 RMK AO2 SLP110 T01000006
KGUP 230353Z AUTO 06007KT 10SM BKN070 OVC100 09/01 A3010 RMK AO2 SLP126 T00890006
KGUP 230253Z AUTO 00000KT 10SM BKN080 OVC100 10/01 A3009 RMK AO2 SLP139 60000 T01000006 51010
KGUP 230153Z AUTO 14007KT 10SM BKN060 BKN075 OVC095 11/00 A3008 RMK AO2 RAB40E52 SLP145 P0000 T01110000
KGUP 230053Z AUTO 21009KT 10SM OVC080 13/M03 A3007 RMK AO2 WSHFT 0006 SLP131 T01331028
KGUP 230026Z AUTO 24014KT 10SM OVC080 14/M03 A3006 RMK AO2 WSHFT 0006 T01391033
KGUP 222353Z AUTO 18013KT 10SM OVC100 15/M05 A3005 RMK AO2 SLP125 T01501050 10172 20144 55000
KGUP 222253Z AUTO 16013KT 10SM CLR 16/M05 A3005 RMK AO2 SLP110 T01561050
KGUP 222153Z AUTO 14008KT 10SM BKN110 16/M06 A3004 RMK AO2 WSHFT 2045 SLP105 T01611061
KGUP 222105Z AUTO 16011G17KT 10SM BKN090 BKN110 17/M07 A3005 RMK AO2 WSHFT 2045 T01721067
KGUP 222053Z AUTO 13013G21KT 10SM BKN090 BKN110 17/M06 A3005 RMK AO2 SLP102 T01721061 56014
KGUP 221953Z AUTO VRB03KT 10SM BKN085 OVC110 16/M05 A3006 RMK AO2 SLP094 T01611050
KGUP 221853Z AUTO 06004KT 10SM CLR 16/M05 A3008 RMK AO2 SLP097 T01561050
KGUP 221753Z AUTO 06005KT 10SM CLR 15/M04 A3010 RMK AO2 SLP096 T01501044 10150 21011 58006
KGUP 221653Z AUTO 08004KT 10SM CLR 13/M05 A3012 RMK AO2 SLP111 T01281050
KGUP 221553Z AUTO 06004KT 10SM CLR 09/M04 A3011 RMK AO2 SLP119 T00941044
KGUP 221453Z AUTO 06003KT 10SM CLR 04/M05 A3012 RMK AO2 SLP140 T00441050 51012
KGUP 221353Z AUTO 00000KT 10SM CLR 01/M06 A3011 RMK AO2 SLP133 T00061061
KGUP 221253Z AUTO 06004KT 10SM CLR 01/M07 A3009 RMK AO2 SLP117 T00111067
KGUP 221153Z AUTO 08003KT 10SM CLR M01/M08 A3008 RMK AO2 SLP116 T10111078 10100 21017 53001
KGUP 221053Z AUTO 04004KT 10SM CLR 02/M07 A3007 RMK AO2 SLP105 T00171067
KGUP 220953Z AUTO 03004KT 10SM CLR 02/M06 A3007 RMK AO2 SLP095 T00221061
KGUP 220853Z AUTO 00000KT 10SM CLR 02/M07 A3008 RMK AO2 SLP096 T00221072 50002
KGUP 220753Z AUTO 00000KT 10SM CLR 06/M07 A3008 RMK AO2 SLP089 T00561067
KGUP 220653Z AUTO 20008KT 10SM CLR 08/M07 A3008 RMK AO2 SLP081 T00781072 402170056
KGUP 220553Z AUTO 22007KT 10SM CLR 10/M07 A3007 RMK AO2 SLP075 T01001072 10200 20100 51016